Saint Leo, Florida
Current Conditions -  °F | °C
As of 1:35 PM on Thursday 27 Nov 2014 (Local Time) from KZPH Reporting Station
Clear Clear  
Wind Chill: 70°   Ceiling: Unl
Heat Index: 70°   Visibility: 10mi
Dew Point: 37°   Wind: 15mph
Humidity: 31%   Direction: 290°WNW
Pressure: 30.2"   Gusts: 22mph
Location:  28.34°N, 82.26°W
Report Text: KZPH 271835Z AUTO 29013G19KT 10SM CLR 21/03 A3020 RMK AO2
Loading
Personal Weather Stations






























Interactive Weather Map New forecast layout! Learn more

10-Day Weather Forecast

Advertisements
Track Severe Weather on mobile